Time;durP1;ratioP1;P1;durP2;ratioP2;P2;SDS_P1;SDS_P2;PMS_P1;PMS_P2;Temp;Humidity;BMP_temperature;BMP_pressure;BME280_temperature;BME280_humidity;BME280_pressure;Samples;Min_cycle;Max_cycle;Signal;HPM_P1;HPM_P2
2023/03/05 00:00:42;;;;;;;16.83;8.95;;;;;;;;;;5072624;28;20016;-59
2023/03/05 00:03:08;;;;;;;21.35;10.10;;;;;;;;;;5091064;28;20017;-59
2023/03/05 00:05:34;;;;;;;18.35;9.63;;;;;;;;;;5073032;28;20023;-59
2023/03/05 00:08:00;;;;;;;19.60;9.45;;;;;;;;;;5091305;28;20527;-58
2023/03/05 00:10:26;;;;;;;18.77;9.60;;;;;;;;;;5106229;22;20557;-63
2023/03/05 00:12:52;;;;;;;19.20;9.93;;;;;;;;;;5092613;28;20028;-63
2023/03/05 00:15:19;;;;;;;17.30;9.07;;;;;;;;;;5092899;28;20069;-64
2023/03/05 00:17:45;;;;;;;18.83;9.80;;;;;;;;;;5092508;28;20028;-64
2023/03/05 00:20:11;;;;;;;15.98;8.90;;;;;;;;;;5093468;28;20048;-64
2023/03/05 00:22:37;;;;;;;22.30;10.07;;;;;;;;;;5093641;28;20401;-65
2023/03/05 00:25:03;;;;;;;17.88;9.57;;;;;;;;;;5075166;28;20111;-64
2023/03/05 00:27:29;;;;;;;22.23;9.93;;;;;;;;;;5094061;28;20024;-64
2023/03/05 00:29:55;;;;;;;18.77;9.80;;;;;;;;;;5094390;28;20027;-63
2023/03/05 00:32:21;;;;;;;20.70;10.18;;;;;;;;;;5076106;28;20081;-63
2023/03/05 00:34:48;;;;;;;19.08;9.93;;;;;;;;;;5093856;28;20032;-62
2023/03/05 00:37:14;;;;;;;18.13;9.38;;;;;;;;;;5076144;28;20081;-64
2023/03/05 00:39:40;;;;;;;16.27;9.35;;;;;;;;;;5075962;28;20058;-64
2023/03/05 00:42:07;;;;;;;20.75;10.80;;;;;;;;;;5094211;28;20054;-65
2023/03/05 00:44:33;;;;;;;18.83;10.23;;;;;;;;;;5076953;28;20469;-62
2023/03/05 00:46:59;;;;;;;22.92;10.75;;;;;;;;;;5075974;28;20062;-64
2023/03/05 00:49:25;;;;;;;17.45;9.77;;;;;;;;;;5075880;28;20052;-63
2023/03/05 00:51:51;;;;;;;20.67;10.25;;;;;;;;;;5075812;28;20024;-64
2023/03/05 00:54:17;;;;;;;17.42;9.95;;;;;;;;;;5075791;28;20035;-64
2023/03/05 00:56:43;;;;;;;24.85;10.57;;;;;;;;;;5075945;28;20077;-64
2023/03/05 00:59:09;;;;;;;21.30;11.73;;;;;;;;;;5093730;28;20032;-63
2023/03/05 01:01:36;;;;;;;22.13;11.40;;;;;;;;;;5093558;28;20031;-63
2023/03/05 01:04:02;;;;;;;16.95;10.20;;;;;;;;;;5075464;28;20028;-63
2023/03/05 01:06:28;;;;;;;21.85;10.10;;;;;;;;;;5075565;28;20437;-63
2023/03/05 01:08:55;;;;;;;18.70;10.60;;;;;;;;;;5093461;28;20396;-65
2023/03/05 01:11:21;;;;;;;24.42;10.80;;;;;;;;;;5075359;28;20031;-64
2023/03/05 01:13:47;;;;;;;22.45;10.50;;;;;;;;;;5093248;28;20042;-64
2023/03/05 01:16:13;;;;;;;28.17;12.13;;;;;;;;;;5075268;28;20107;-64
2023/03/05 01:18:39;;;;;;;22.88;10.52;;;;;;;;;;5075313;28;20032;-64
2023/03/05 01:21:05;;;;;;;21.25;10.80;;;;;;;;;;5093302;28;20035;-64
2023/03/05 01:23:33;;;;;;;18.98;10.40;;;;;;;;;;5093061;28;20020;-63
2023/03/05 01:25:59;;;;;;;20.67;11.03;;;;;;;;;;5093333;28;20016;-64
2023/03/05 01:28:26;;;;;;;22.88;10.82;;;;;;;;;;5093072;28;20051;-63
2023/03/05 01:30:52;;;;;;;23.25;10.52;;;;;;;;;;5093145;28;20027;-62
2023/03/05 01:33:18;;;;;;;19.08;10.55;;;;;;;;;;5092885;28;20032;-64
2023/03/05 01:35:46;;;;;;;23.60;11.70;;;;;;;;;;5092959;28;20020;-63
2023/03/05 01:38:12;;;;;;;23.13;10.80;;;;;;;;;;5093097;28;20034;-65
2023/03/05 01:40:38;;;;;;;22.70;11.40;;;;;;;;;;5092784;28;20031;-64
2023/03/05 01:43:10;;;;;;;18.83;10.50;;;;;;;;;;5092751;28;20016;-65
2023/03/05 01:45:37;;;;;;;18.42;11.30;;;;;;;;;;5092935;28;20020;-64
2023/03/05 01:48:03;;;;;;;21.60;11.68;;;;;;;;;;5093072;28;20050;-65
2023/03/05 01:50:29;;;;;;;20.52;10.38;;;;;;;;;;5074683;28;20492;-64
2023/03/05 01:52:59;;;;;;;22.35;10.90;;;;;;;;;;5082175;28;20400;-65
2023/03/05 01:55:27;;;;;;;21.70;11.20;;;;;;;;;;5103341;28;20081;-63
2023/03/05 01:57:55;;;;;;;16.88;10.45;;;;;;;;;;5104629;28;20458;-64
2023/03/05 02:00:33;;;;;;;18.08;10.70;;;;;;;;;;5113261;28;20089;-65
2023/03/05 02:03:02;;;;;;;18.52;10.50;;;;;;;;;;5098975;28;20035;-64
2023/03/05 02:05:29;;;;;;;19.95;10.77;;;;;;;;;;5086163;28;20123;-63
2023/03/05 02:07:56;;;;;;;21.20;10.13;;;;;;;;;;5104284;28;20110;-64
2023/03/05 02:10:22;;;;;;;19.02;11.10;;;;;;;;;;5094315;28;20031;-64
2023/03/05 02:12:48;;;;;;;21.60;11.40;;;;;;;;;;5112747;28;20041;-64
2023/03/05 02:15:15;;;;;;;20.92;11.63;;;;;;;;;;5106309;28;20038;-63
2023/03/05 02:17:41;;;;;;;23.63;11.20;;;;;;;;;;5085905;28;20026;-64
2023/03/05 02:20:12;;;;;;;23.90;11.95;;;;;;;;;;5112530;28;20033;-65
2023/03/05 02:22:38;;;;;;;18.92;10.80;;;;;;;;;;5112628;28;20164;-64
2023/03/05 02:25:13;;;;;;;18.42;10.25;;;;;;;;;;5094376;28;20027;-62
2023/03/05 02:27:40;;;;;;;22.88;11.68;;;;;;;;;;5101405;28;20161;-62
2023/03/05 02:30:06;;;;;;;19.42;11.48;;;;;;;;;;5081244;28;20031;-63
2023/03/05 02:32:32;;;;;;;16.85;9.93;;;;;;;;;;5092223;28;20039;-63
2023/03/05 02:34:58;;;;;;;16.10;9.50;;;;;;;;;;5073982;28;20024;-61
2023/03/05 02:37:24;;;;;;;16.17;10.30;;;;;;;;;;5074066;28;20035;-64
2023/03/05 02:39:50;;;;;;;15.48;9.55;;;;;;;;;;5073191;28;20030;-63
2023/03/05 02:42:16;;;;;;;19.02;9.70;;;;;;;;;;5091963;28;20077;-63
2023/03/05 02:44:42;;;;;;;16.30;9.88;;;;;;;;;;5091681;28;20077;-64
2023/03/05 02:47:08;;;;;;;18.30;10.43;;;;;;;;;;5092172;28;20464;-63
2023/03/05 02:49:34;;;;;;;20.20;10.70;;;;;;;;;;5091985;28;20102;-64
2023/03/05 02:52:00;;;;;;;22.63;9.80;;;;;;;;;;5091749;28;20031;-64
2023/03/05 02:54:26;;;;;;;19.48;10.13;;;;;;;;;;5091424;28;20024;-63
2023/03/05 02:56:52;;;;;;;19.60;10.60;;;;;;;;;;5092106;28;20101;-65
2023/03/05 02:59:18;;;;;;;19.65;11.35;;;;;;;;;;5073682;28;20477;-65
2023/03/05 03:01:44;;;;;;;17.33;10.20;;;;;;;;;;5073687;28;20024;-63
2023/03/05 03:04:10;;;;;;;20.98;11.85;;;;;;;;;;5073364;28;20069;-64
2023/03/05 03:06:36;;;;;;;18.95;10.90;;;;;;;;;;5065537;28;20020;-63
2023/03/05 03:09:02;;;;;;;18.60;11.48;;;;;;;;;;5103162;28;20023;-63
2023/03/05 03:11:28;;;;;;;18.90;10.80;;;;;;;;;;5112045;28;20035;-64
2023/03/05 03:13:54;;;;;;;18.10;11.35;;;;;;;;;;5090152;28;20495;-63
2023/03/05 03:16:20;;;;;;;16.98;11.90;;;;;;;;;;5085176;28;20026;-63
2023/03/05 03:18:47;;;;;;;24.70;12.05;;;;;;;;;;5093777;28;20118;-63
2023/03/05 03:21:17;;;;;;;17.83;11.82;;;;;;;;;;5111840;28;20031;-65
2023/03/05 03:23:43;;;;;;;18.35;11.10;;;;;;;;;;5111559;28;20436;-63
2023/03/05 03:26:09;;;;;;;18.48;10.52;;;;;;;;;;5089272;28;20054;-64
2023/03/05 03:28:35;;;;;;;23.52;11.73;;;;;;;;;;5085374;28;20050;-63
2023/03/05 03:31:01;;;;;;;21.10;10.88;;;;;;;;;;5093463;28;20498;-63
2023/03/05 03:33:27;;;;;;;17.73;11.00;;;;;;;;;;5093284;28;20445;-62
2023/03/05 03:35:53;;;;;;;18.00;11.45;;;;;;;;;;5093617;28;20020;-63
2023/03/05 03:38:19;;;;;;;19.95;11.18;;;;;;;;;;5111891;28;20067;-65
2023/03/05 03:40:45;;;;;;;21.00;12.65;;;;;;;;;;5093205;28;20031;-62
2023/03/05 03:43:11;;;;;;;21.98;11.68;;;;;;;;;;5111590;28;20047;-63
2023/03/05 03:45:40;;;;;;;17.85;11.77;;;;;;;;;;5111775;28;20019;-63
2023/03/05 03:48:06;;;;;;;23.77;11.60;;;;;;;;;;5093215;28;20019;-65
2023/03/05 03:50:32;;;;;;;17.08;10.95;;;;;;;;;;5094993;28;20024;-64
2023/03/05 03:52:57;;;;;;;18.42;11.25;;;;;;;;;;5115069;28;20035;-62
2023/03/05 03:55:23;;;;;;;22.13;12.52;;;;;;;;;;5096962;28;20027;-63
2023/03/05 03:57:49;;;;;;;19.52;12.15;;;;;;;;;;5115371;28;20049;-64
2023/03/05 04:00:16;;;;;;;18.85;12.43;;;;;;;;;;5097047;28;20040;-64
2023/03/05 04:02:42;;;;;;;22.10;11.93;;;;;;;;;;5114956;28;20027;-63
2023/03/05 04:05:08;;;;;;;19.83;12.20;;;;;;;;;;5115094;28;20030;-65
2023/03/05 04:07:34;;;;;;;18.83;11.23;;;;;;;;;;5115123;28;20020;-63
2023/03/05 04:10:00;;;;;;;25.52;12.02;;;;;;;;;;5115120;28;20037;-64
2023/03/05 04:12:26;;;;;;;17.50;11.23;;;;;;;;;;5115094;28;20476;-64
2023/03/05 04:14:52;;;;;;;17.98;11.70;;;;;;;;;;5096338;28;20126;-64
2023/03/05 04:17:18;;;;;;;17.58;11.40;;;;;;;;;;5115043;28;20049;-65
2023/03/05 04:19:44;;;;;;;20.38;12.25;;;;;;;;;;5096749;28;20019;-63
2023/03/05 04:22:11;;;;;;;18.50;11.75;;;;;;;;;;5114983;28;20028;-64
2023/03/05 04:24:37;;;;;;;19.17;12.23;;;;;;;;;;5114478;28;20464;-63
2023/03/05 04:27:03;;;;;;;22.40;11.68;;;;;;;;;;5114261;28;20545;-63
2023/03/05 04:29:29;;;;;;;17.73;11.85;;;;;;;;;;5115062;28;20062;-62
2023/03/05 04:31:55;;;;;;;18.95;11.60;;;;;;;;;;5114400;28;20031;-64
2023/03/05 04:34:21;;;;;;;24.67;12.50;;;;;;;;;;5114444;28;20032;-64
2023/03/05 04:36:47;;;;;;;18.70;11.82;;;;;;;;;;5114538;28;20095;-64
2023/03/05 04:39:13;;;;;;;20.15;12.00;;;;;;;;;;5114168;28;20463;-64
2023/03/05 04:41:39;;;;;;;18.70;11.55;;;;;;;;;;5096183;28;20040;-64
2023/03/05 04:44:05;;;;;;;20.92;11.73;;;;;;;;;;5114714;28;20045;-64
2023/03/05 04:46:31;;;;;;;19.20;11.57;;;;;;;;;;5096786;28;20109;-63
2023/03/05 04:48:58;;;;;;;19.77;11.65;;;;;;;;;;5115050;28;20482;-61
2023/03/05 04:51:24;;;;;;;19.92;13.20;;;;;;;;;;5096713;28;20112;-64
2023/03/05 04:53:50;;;;;;;22.02;12.05;;;;;;;;;;5114084;28;20031;-63
2023/03/05 04:56:16;;;;;;;18.42;11.63;;;;;;;;;;5096076;28;20447;-64
2023/03/05 04:58:42;;;;;;;23.83;12.52;;;;;;;;;;5095996;28;20065;-64
2023/03/05 05:01:08;;;;;;;17.20;10.15;;;;;;;;;;5096246;28;20051;-64
2023/03/05 05:03:34;;;;;;;19.63;11.25;;;;;;;;;;5113158;28;20023;-63
2023/03/05 05:06:01;;;;;;;21.67;11.65;;;;;;;;;;5114046;28;20081;-63
2023/03/05 05:08:28;;;;;;;17.98;11.73;;;;;;;;;;5114052;28;20016;-65
2023/03/05 05:11:01;;;;;;;21.80;12.52;;;;;;;;;;5113628;28;20031;-63
2023/03/05 05:13:27;;;;;;;21.45;11.77;;;;;;;;;;5113657;28;20016;-64
2023/03/05 05:15:53;;;;;;;22.40;12.55;;;;;;;;;;5113380;28;20027;-63
2023/03/05 05:18:19;;;;;;;18.90;11.40;;;;;;;;;;5095640;28;20225;-64
2023/03/05 05:20:45;;;;;;;17.95;10.93;;;;;;;;;;5113548;28;20016;-64
2023/03/05 05:23:11;;;;;;;17.00;10.55;;;;;;;;;;5094653;28;20396;-63
2023/03/05 05:25:37;;;;;;;19.77;11.05;;;;;;;;;;5113522;28;20022;-64
2023/03/05 05:28:03;;;;;;;16.83;10.95;;;;;;;;;;5095110;28;20016;-63
2023/03/05 05:30:29;;;;;;;17.20;11.07;;;;;;;;;;5113634;28;20020;-64
2023/03/05 05:32:55;;;;;;;20.52;11.60;;;;;;;;;;5113340;28;20046;-65
2023/03/05 05:35:21;;;;;;;19.17;11.57;;;;;;;;;;5095002;28;20432;-64
2023/03/05 05:37:48;;;;;;;19.15;11.63;;;;;;;;;;5113447;28;20049;-64
2023/03/05 05:40:14;;;;;;;20.02;11.18;;;;;;;;;;5113138;28;20035;-64
2023/03/05 05:42:40;;;;;;;21.25;11.57;;;;;;;;;;5094813;28;20027;-63
2023/03/05 05:45:06;;;;;;;19.35;11.18;;;;;;;;;;5094845;28;20015;-64
2023/03/05 05:47:32;;;;;;;19.52;11.45;;;;;;;;;;5113161;28;20068;-63
2023/03/05 05:49:59;;;;;;;18.50;11.20;;;;;;;;;;5113043;28;20023;-63
2023/03/05 05:52:24;;;;;;;19.73;11.55;;;;;;;;;;5113047;28;20039;-64
2023/03/05 05:54:51;;;;;;;18.55;11.10;;;;;;;;;;5094253;28;20444;-64
2023/03/05 05:57:17;;;;;;;18.45;10.90;;;;;;;;;;5112858;28;20019;-64
2023/03/05 05:59:43;;;;;;;18.75;10.55;;;;;;;;;;5112904;28;20095;-64
2023/03/05 06:02:10;;;;;;;18.48;11.38;;;;;;;;;;5094475;28;20118;-64
2023/03/05 06:04:36;;;;;;;27.88;11.23;;;;;;;;;;5112504;28;20024;-63
2023/03/05 06:07:02;;;;;;;20.23;11.98;;;;;;;;;;5112683;28;20035;-64
2023/03/05 06:12:03;;;;;;;24.17;11.70;;;;;;;;;;5087493;22;20052;-58
2023/03/05 06:14:29;;;;;;;22.52;11.68;;;;;;;;;;5067624;28;20036;-55
2023/03/05 06:16:55;;;;;;;18.58;11.20;;;;;;;;;;5068941;28;20024;-58
2023/03/05 06:19:21;;;;;;;21.50;11.43;;;;;;;;;;5071745;28;20055;-58
2023/03/05 06:21:47;;;;;;;19.08;10.70;;;;;;;;;;5071564;28;20105;-58
2023/03/05 06:24:13;;;;;;;21.25;10.85;;;;;;;;;;5059628;28;20029;-57
2023/03/05 06:26:39;;;;;;;19.30;10.82;;;;;;;;;;5051918;28;20021;-57
2023/03/05 06:29:05;;;;;;;19.92;10.82;;;;;;;;;;5051558;28;20027;-58
2023/03/05 06:31:31;;;;;;;16.90;10.15;;;;;;;;;;5052777;28;20132;-56
2023/03/05 06:34:02;;;;;;;23.20;11.98;;;;;;;;;;5071307;28;20021;-58
2023/03/05 06:36:28;;;;;;;17.10;11.23;;;;;;;;;;5071633;28;20660;-60
2023/03/05 06:38:54;;;;;;;19.92;11.85;;;;;;;;;;5071467;28;20035;-57
2023/03/05 06:41:21;;;;;;;23.30;12.45;;;;;;;;;;5071517;28;20051;-58
2023/03/05 06:43:47;;;;;;;19.75;12.20;;;;;;;;;;5071540;28;20025;-59
2023/03/05 06:46:15;;;;;;;19.00;12.15;;;;;;;;;;5071418;28;20021;-59
2023/03/05 06:48:42;;;;;;;23.23;12.38;;;;;;;;;;5069203;28;20362;-59
2023/03/05 06:51:21;;;;;;;21.25;11.80;;;;;;;;;;5051454;28;20025;-59
2023/03/05 06:53:48;;;;;;;18.65;11.75;;;;;;;;;;5051123;28;20029;-59
2023/03/05 06:56:15;;;;;;;21.50;13.60;;;;;;;;;;5051447;28;20029;-58
2023/03/05 06:58:41;;;;;;;20.25;13.18;;;;;;;;;;5051344;28;20029;-59
2023/03/05 07:01:07;;;;;;;20.38;13.10;;;;;;;;;;5051358;28;20021;-59
2023/03/05 07:03:34;;;;;;;19.52;14.10;;;;;;;;;;5051232;28;20024;-59
2023/03/05 07:06:08;;;;;;;20.70;14.32;;;;;;;;;;5033389;28;20036;-59
2023/03/05 07:08:34;;;;;;;19.40;14.35;;;;;;;;;;5051303;28;20029;-58
2023/03/05 07:11:00;;;;;;;22.92;15.95;;;;;;;;;;5050945;28;20072;-59
2023/03/05 07:13:27;;;;;;;23.08;16.30;;;;;;;;;;5051008;28;20092;-59
2023/03/05 07:15:53;;;;;;;21.63;19.05;;;;;;;;;;5051050;28;20021;-59
2023/03/05 07:18:19;;;;;;;23.13;20.63;;;;;;;;;;5051127;28;20400;-60
2023/03/05 07:20:45;;;;;;;25.27;22.88;;;;;;;;;;5051076;28;20485;-58
2023/03/05 07:23:11;;;;;;;32.05;29.10;;;;;;;;;;5050670;28;20021;-59
2023/03/05 07:25:38;;;;;;;36.28;33.10;;;;;;;;;;5051380;28;20021;-59
2023/03/05 07:28:05;;;;;;;38.97;35.55;;;;;;;;;;5037200;28;20025;-59
2023/03/05 07:30:31;;;;;;;37.40;33.70;;;;;;;;;;5054558;28;20104;-59
2023/03/05 07:32:57;;;;;;;35.45;32.45;;;;;;;;;;5054876;28;20102;-59
2023/03/05 07:35:23;;;;;;;35.83;33.00;;;;;;;;;;5054575;28;20025;-59
2023/03/05 07:37:49;;;;;;;36.72;33.55;;;;;;;;;;5054790;28;20064;-57
2023/03/05 07:40:16;;;;;;;35.95;33.03;;;;;;;;;;5055676;28;20082;-59
2023/03/05 07:42:42;;;;;;;34.65;31.90;;;;;;;;;;5036799;28;20025;-59
2023/03/05 07:45:08;;;;;;;35.35;32.15;;;;;;;;;;5054555;28;20036;-57
2023/03/05 07:47:34;;;;;;;34.33;31.42;;;;;;;;;;5054562;28;20029;-59
2023/03/05 07:50:00;;;;;;;33.85;30.98;;;;;;;;;;5061725;28;20025;-62
2023/03/05 07:52:26;;;;;;;32.85;30.15;;;;;;;;;;5074390;28;20040;-59
2023/03/05 07:54:52;;;;;;;32.60;30.00;;;;;;;;;;5056416;28;20027;-58
2023/03/05 07:57:18;;;;;;;31.20;28.50;;;;;;;;;;5074550;28;20030;-58
2023/03/05 07:59:44;;;;;;;29.52;27.02;;;;;;;;;;5056468;28;20071;-57
2023/03/05 08:02:11;;;;;;;27.73;25.40;;;;;;;;;;5074299;28;20032;-58
2023/03/05 08:04:37;;;;;;;27.45;25.15;;;;;;;;;;5074595;28;20024;-58
2023/03/05 08:07:03;;;;;;;26.63;24.33;;;;;;;;;;5056510;28;20020;-56
2023/03/05 08:09:30;;;;;;;27.15;24.85;;;;;;;;;;5056491;28;20021;-58
2023/03/05 08:11:56;;;;;;;27.15;24.80;;;;;;;;;;5074185;28;20496;-55
2023/03/05 08:14:22;;;;;;;25.98;23.63;;;;;;;;;;5074238;28;20028;-56
2023/03/05 08:16:51;;;;;;;25.67;23.10;;;;;;;;;;5044669;28;20025;-61
2023/03/05 08:19:20;;;;;;;24.45;22.30;;;;;;;;;;5054001;28;20429;-59
2023/03/05 08:21:46;;;;;;;23.33;21.13;;;;;;;;;;5054207;28;20470;-58
2023/03/05 08:24:12;;;;;;;21.58;19.48;;;;;;;;;;5053906;28;20550;-59
2023/03/05 08:26:39;;;;;;;24.17;19.85;;;;;;;;;;5054355;28;20100;-58
2023/03/05 08:29:05;;;;;;;22.58;20.42;;;;;;;;;;5054047;28;20021;-59
2023/03/05 08:31:32;;;;;;;21.80;19.70;;;;;;;;;;5053909;28;20025;-59
2023/03/05 08:33:58;;;;;;;21.58;19.38;;;;;;;;;;5053841;28;20456;-55
2023/03/05 08:36:26;;;;;;;21.17;19.08;;;;;;;;;;5036193;28;20056;-58
2023/03/05 08:38:52;;;;;;;22.35;20.25;;;;;;;;;;5035045;28;20048;-59
2023/03/05 08:41:19;;;;;;;22.33;20.02;;;;;;;;;;5053641;28;20025;-58
2023/03/05 08:43:45;;;;;;;29.15;21.38;;;;;;;;;;5053402;28;20021;-57
2023/03/05 08:46:12;;;;;;;22.27;19.95;;;;;;;;;;5035868;28;20120;-59
2023/03/05 08:48:38;;;;;;;22.42;20.02;;;;;;;;;;5053516;28;20025;-60
2023/03/05 08:51:05;;;;;;;22.45;20.38;;;;;;;;;;5053218;28;20021;-58
2023/03/05 08:53:31;;;;;;;21.15;18.95;;;;;;;;;;5053095;28;20029;-64
2023/03/05 08:55:57;;;;;;;19.58;17.52;;;;;;;;;;5053365;28;20064;-64
2023/03/05 08:58:24;;;;;;;20.02;17.13;;;;;;;;;;5053224;28;20107;-64
2023/03/05 09:00:50;;;;;;;19.10;17.10;;;;;;;;;;5053133;28;20028;-65
2023/03/05 09:03:16;;;;;;;20.67;18.45;;;;;;;;;;5053050;28;20786;-65
2023/03/05 09:05:42;;;;;;;19.65;17.65;;;;;;;;;;5053032;28;20056;-66
2023/03/05 09:08:08;;;;;;;20.92;16.90;;;;;;;;;;5050980;28;20021;-66
2023/03/05 09:10:34;;;;;;;25.77;17.98;;;;;;;;;;5052621;28;20489;-66
2023/03/05 09:13:00;;;;;;;19.02;16.48;;;;;;;;;;5052659;28;20021;-66
2023/03/05 09:15:26;;;;;;;17.52;15.63;;;;;;;;;;5031692;28;20067;-64
2023/03/05 09:17:52;;;;;;;19.40;15.63;;;;;;;;;;5046676;28;20025;-65
2023/03/05 09:20:18;;;;;;;20.42;15.43;;;;;;;;;;5052773;28;20083;-65
2023/03/05 09:22:44;;;;;;;20.30;14.82;;;;;;;;;;5052655;28;20037;-66
2023/03/05 09:25:11;;;;;;;17.33;14.70;;;;;;;;;;5053116;28;20028;-67
2023/03/05 09:27:37;;;;;;;19.55;14.73;;;;;;;;;;5052763;28;20022;-66
2023/03/05 09:30:04;;;;;;;17.48;13.98;;;;;;;;;;5052624;28;20064;-66
2023/03/05 09:32:30;;;;;;;18.73;12.55;;;;;;;;;;5037304;28;20060;-65
2023/03/05 09:34:56;;;;;;;19.98;13.63;;;;;;;;;;5052782;28;20397;-65
2023/03/05 09:37:22;;;;;;;17.67;13.10;;;;;;;;;;5051750;28;20032;-64
2023/03/05 09:39:48;;;;;;;17.58;13.38;;;;;;;;;;5052334;28;20033;-64
2023/03/05 09:42:33;;;;;;;16.45;12.27;;;;;;;;;;5052433;28;20051;-65
2023/03/05 09:45:09;;;;;;;18.52;12.02;;;;;;;;;;5032967;28;20020;-61
2023/03/05 09:47:35;;;;;;;17.48;11.60;;;;;;;;;;5050562;28;20099;-61
2023/03/05 09:50:17;;;;;;;20.05;13.77;;;;;;;;;;5049905;28;20029;-60
2023/03/05 09:52:46;;;;;;;17.90;11.55;;;;;;;;;;5050202;28;20036;-61
2023/03/05 09:55:31;;;;;;;19.35;11.90;;;;;;;;;;5050273;28;20025;-59
2023/03/05 09:58:02;;;;;;;23.02;13.02;;;;;;;;;;5050176;28;20032;-61
2023/03/05 10:00:43;;;;;;;15.70;10.60;;;;;;;;;;5051128;28;20036;-59
2023/03/05 10:03:25;;;;;;;16.23;10.35;;;;;;;;;;5051637;28;20021;-61
2023/03/05 10:05:58;;;;;;;19.73;9.23;;;;;;;;;;5052064;28;20021;-62
2023/03/05 10:08:29;;;;;;;15.48;9.05;;;;;;;;;;5052354;28;20031;-58
2023/03/05 10:10:55;;;;;;;16.33;9.55;;;;;;;;;;5051844;28;20025;-60
2023/03/05 10:13:39;;;;;;;16.77;9.40;;;;;;;;;;5033977;28;20021;-67
2023/03/05 10:16:25;;;;;;;19.10;11.20;;;;;;;;;;5052226;28;20017;-63
2023/03/05 10:18:51;;;;;;;15.98;9.35;;;;;;;;;;5051006;28;20097;-62
2023/03/05 10:21:41;;;;;;;17.25;9.50;;;;;;;;;;5051461;28;20112;-62
2023/03/05 10:24:26;;;;;;;18.20;9.98;;;;;;;;;;5051648;28;20425;-62
2023/03/05 10:26:55;;;;;;;17.38;8.35;;;;;;;;;;5051790;28;20484;-62
2023/03/05 10:29:33;;;;;;;16.65;9.10;;;;;;;;;;5051626;28;20052;-62
2023/03/05 10:32:19;;;;;;;18.05;9.68;;;;;;;;;;5051585;28;20107;-62
2023/03/05 10:35:03;;;;;;;16.15;9.30;;;;;;;;;;5051515;28;20519;-62
2023/03/05 10:37:41;;;;;;;15.30;8.70;;;;;;;;;;5051510;28;20049;-62
2023/03/05 10:40:14;;;;;;;15.18;8.88;;;;;;;;;;5067130;28;20389;-60
2023/03/05 10:42:49;;;;;;;14.57;8.00;;;;;;;;;;5051190;28;20029;-60
2023/03/05 10:45:17;;;;;;;13.60;8.00;;;;;;;;;;5051149;28;20040;-63
2023/03/05 10:47:43;;;;;;;14.30;7.80;;;;;;;;;;5051092;28;20469;-61
2023/03/05 10:50:15;;;;;;;14.52;7.75;;;;;;;;;;5051300;28;20032;-60
2023/03/05 10:52:45;;;;;;;14.95;8.18;;;;;;;;;;5051273;28;20060;-61
2023/03/05 10:55:22;;;;;;;13.75;7.80;;;;;;;;;;5051123;28;20420;-61
2023/03/05 10:57:48;;;;;;;15.18;8.10;;;;;;;;;;5051548;28;20087;-64
2023/03/05 11:00:20;;;;;;;13.77;7.18;;;;;;;;;;5066579;28;20040;-62
2023/03/05 11:02:57;;;;;;;14.80;7.45;;;;;;;;;;5055054;28;20024;-60
2023/03/05 11:05:38;;;;;;;13.45;7.18;;;;;;;;;;5055325;28;20079;-59
2023/03/05 11:08:23;;;;;;;12.73;6.90;;;;;;;;;;5070701;28;20057;-62
2023/03/05 11:11:02;;;;;;;14.32;7.47;;;;;;;;;;5054938;28;20078;-58
2023/03/05 11:13:28;;;;;;;14.20;7.70;;;;;;;;;;5054982;28;20033;-61
2023/03/05 11:15:59;;;;;;;16.27;7.78;;;;;;;;;;5070401;28;20025;-61
2023/03/05 11:18:25;;;;;;;14.60;7.70;;;;;;;;;;5054943;28;20032;-61
2023/03/05 11:20:51;;;;;;;15.75;7.93;;;;;;;;;;5054999;28;20087;-62
2023/03/05 11:23:18;;;;;;;15.32;7.40;;;;;;;;;;5054681;28;20552;-59
2023/03/05 11:26:16;;;;;;;16.50;7.60;;;;;;;;;;5070411;28;20025;-60
2023/03/05 11:28:51;;;;;;;15.45;7.28;;;;;;;;;;5015150;28;20029;-61
2023/03/05 11:31:18;;;;;;;14.40;6.90;;;;;;;;;;5052182;28;20090;-60
2023/03/05 11:33:55;;;;;;;15.90;7.55;;;;;;;;;;5054431;28;20488;-61
2023/03/05 11:36:22;;;;;;;15.23;7.33;;;;;;;;;;5028292;28;20024;-61
2023/03/05 11:38:54;;;;;;;14.45;7.28;;;;;;;;;;4701946;28;10000446;-61
2023/03/05 11:41:24;;;;;;;16.08;7.93;;;;;;;;;;5051832;28;20033;-61
2023/03/05 11:43:51;;;;;;;16.00;7.80;;;;;;;;;;5052036;28;20029;-61
2023/03/05 11:46:18;;;;;;;16.42;7.50;;;;;;;;;;5034072;28;20025;-64
2023/03/05 11:48:44;;;;;;;12.98;6.82;;;;;;;;;;5034524;28;20017;-61
2023/03/05 11:51:31;;;;;;;13.45;7.00;;;;;;;;;;5033984;28;20021;-58
2023/03/05 11:54:01;;;;;;;13.70;7.10;;;;;;;;;;5057438;28;20037;-61
2023/03/05 11:56:29;;;;;;;14.60;7.15;;;;;;;;;;5058777;28;20384;-59
2023/03/05 11:59:01;;;;;;;14.70;7.53;;;;;;;;;;5064554;28;20500;-58
2023/03/05 12:01:30;;;;;;;14.88;6.80;;;;;;;;;;5070606;28;20032;-59
2023/03/05 12:03:56;;;;;;;13.95;7.28;;;;;;;;;;5043118;28;20025;-62
2023/03/05 12:06:34;;;;;;;16.80;7.55;;;;;;;;;;5056670;28;20538;-62
2023/03/05 12:09:03;;;;;;;14.50;7.47;;;;;;;;;;5052269;28;20474;-58
2023/03/05 12:11:30;;;;;;;15.00;7.10;;;;;;;;;;5058622;22;20501;-64
2023/03/05 12:13:59;;;;;;;14.02;6.90;;;;;;;;;;5069877;28;20035;-64
2023/03/05 12:16:30;;;;;;;15.10;7.22;;;;;;;;;;5064709;28;20057;-64
2023/03/05 12:19:15;;;;;;;13.95;7.13;;;;;;;;;;5049077;28;20028;-64
2023/03/05 12:21:42;;;;;;;14.68;7.30;;;;;;;;;;5062951;28;20036;-64
2023/03/05 12:24:23;;;;;;;14.38;7.18;;;;;;;;;;5051727;28;20021;-64
2023/03/05 12:26:49;;;;;;;15.57;7.30;;;;;;;;;;5033805;28;20021;-65
2023/03/05 12:29:27;;;;;;;14.88;8.18;;;;;;;;;;5051818;28;20079;-64
2023/03/05 12:31:53;;;;;;;13.70;7.47;;;;;;;;;;5054324;28;20037;-63
2023/03/05 12:34:38;;;;;;;14.57;7.75;;;;;;;;;;5051226;28;20031;-64
2023/03/05 12:37:14;;;;;;;15.30;7.65;;;;;;;;;;5051281;28;20021;-64
2023/03/05 12:39:42;;;;;;;15.52;7.85;;;;;;;;;;5050953;28;20087;-64
2023/03/05 12:42:28;;;;;;;13.83;7.63;;;;;;;;;;5033118;28;20025;-60
2023/03/05 12:45:15;;;;;;;14.38;7.47;;;;;;;;;;5032684;28;20603;-64
2023/03/05 12:47:42;;;;;;;12.45;7.10;;;;;;;;;;5033452;28;20017;-64
2023/03/05 12:50:26;;;;;;;16.02;7.47;;;;;;;;;;5033043;28;20021;-63
2023/03/05 12:52:55;;;;;;;15.27;7.70;;;;;;;;;;5032439;28;20037;-65
2023/03/05 12:55:21;;;;;;;17.23;7.70;;;;;;;;;;5051842;28;20401;-65
2023/03/05 12:57:52;;;;;;;14.80;7.65;;;;;;;;;;5051769;28;20029;-64
2023/03/05 13:00:41;;;;;;;13.57;7.25;;;;;;;;;;5059488;28;20436;-63
2023/03/05 13:03:30;;;;;;;14.73;7.55;;;;;;;;;;5039903;28;20045;-64
2023/03/05 13:05:57;;;;;;;16.85;7.82;;;;;;;;;;5043193;28;20578;-64
2023/03/05 13:08:37;;;;;;;16.20;7.70;;;;;;;;;;5035943;28;20040;-64
2023/03/05 13:11:07;;;;;;;13.00;7.40;;;;;;;;;;5053607;28;20037;-63
2023/03/05 13:13:37;;;;;;;13.32;7.35;;;;;;;;;;5053573;28;20029;-62
2023/03/05 13:16:04;;;;;;;14.93;8.10;;;;;;;;;;5053616;28;20036;-64
2023/03/05 13:18:31;;;;;;;15.27;7.70;;;;;;;;;;5053307;28;20120;-63
2023/03/05 13:21:05;;;;;;;15.88;8.30;;;;;;;;;;5053243;28;20048;-68
2023/03/05 13:23:32;;;;;;;14.82;8.00;;;;;;;;;;5052045;28;20033;-63
2023/03/05 13:25:58;;;;;;;13.70;7.73;;;;;;;;;;5053236;28;20021;-65
2023/03/05 13:28:25;;;;;;;14.48;8.10;;;;;;;;;;5052792;28;20016;-64
2023/03/05 13:30:59;;;;;;;14.27;8.52;;;;;;;;;;5047669;28;20120;-65
2023/03/05 13:33:30;;;;;;;13.85;8.10;;;;;;;;;;5034781;28;20116;-64
2023/03/05 13:35:56;;;;;;;14.15;8.32;;;;;;;;;;4686099;28;10000058;-64
2023/03/05 13:38:42;;;;;;;15.98;8.15;;;;;;;;;;5031814;28;20070;-64
2023/03/05 13:41:18;;;;;;;14.35;8.38;;;;;;;;;;5049509;28;20021;-64
2023/03/05 13:43:55;;;;;;;13.88;8.20;;;;;;;;;;5031586;28;20071;-65
2023/03/05 13:46:26;;;;;;;14.35;8.00;;;;;;;;;;5051355;28;20029;-64
2023/03/05 13:48:52;;;;;;;14.60;7.95;;;;;;;;;;5051161;28;20032;-64
2023/03/05 13:51:18;;;;;;;14.93;7.80;;;;;;;;;;5034632;28;20473;-64
2023/03/05 13:53:44;;;;;;;14.45;7.38;;;;;;;;;;4699655;28;10000458;-63
2023/03/05 13:56:15;;;;;;;17.25;8.18;;;;;;;;;;5042729;28;20101;-65
2023/03/05 13:58:43;;;;;;;13.82;7.75;;;;;;;;;;5033623;28;20036;-65
2023/03/05 14:01:32;;;;;;;13.57;7.57;;;;;;;;;;5046617;28;20032;-64
2023/03/05 14:04:03;;;;;;;14.05;7.45;;;;;;;;;;5033679;28;20832;-65
2023/03/05 14:06:29;;;;;;;13.93;7.65;;;;;;;;;;4701327;28;10000192;-64
2023/03/05 14:09:17;;;;;;;13.50;7.10;;;;;;;;;;5030070;28;20025;-64
2023/03/05 14:11:51;;;;;;;14.40;7.22;;;;;;;;;;5047287;28;20060;-64
2023/03/05 14:14:19;;;;;;;14.20;7.90;;;;;;;;;;4716989;28;10001195;-65
2023/03/05 14:16:46;;;;;;;14.75;7.72;;;;;;;;;;5050078;28;20257;-64
2023/03/05 14:19:33;;;;;;;15.30;7.93;;;;;;;;;;5029890;28;20086;-65
2023/03/05 14:21:59;;;;;;;13.17;7.40;;;;;;;;;;5049221;28;20029;-64
2023/03/05 14:24:29;;;;;;;14.95;7.55;;;;;;;;;;5048754;28;20260;-64
2023/03/05 14:26:56;;;;;;;15.48;9.23;;;;;;;;;;5049030;28;20017;-64
2023/03/05 14:29:24;;;;;;;13.55;7.78;;;;;;;;;;5049314;28;20094;-66
2023/03/05 14:31:58;;;;;;;14.90;7.87;;;;;;;;;;5035049;28;20037;-65